Time;durP1;ratioP1;P1;durP2;ratioP2;P2;SDS_P1;SDS_P2;PMS_P1;PMS_P2;Temp;Humidity;BMP_temperature;BMP_pressure;BME280_temperature;BME280_humidity;BME280_pressure;Samples;Min_cycle;Max_cycle;Signal;HPM_P1;HPM_P2
2022/10/08 00:00:40;;;;;;;;;;;;;;;17.14;48.97;101455.50;5077248;28;1972;-58
2022/10/08 00:03:05;;;;;;;;;;;;;;;17.34;48.72;101452.94;5074499;28;1127;-57
2022/10/08 00:05:30;;;;;;;;;;;;;;;17.60;49.55;101440.22;5077152;28;1347;-57
2022/10/08 00:07:56;;;;;;;;;;;;;;;17.18;49.11;101448.38;5077048;28;1154;-58
2022/10/08 00:10:21;;;;;;;;;;;;;;;17.08;48.89;101441.72;5076717;28;1150;-58
2022/10/08 00:12:47;;;;;;;;;;;;;;;17.81;49.15;101439.50;5076935;28;1448;-57
2022/10/08 00:15:12;;;;;;;;;;;;;;;17.13;49.20;101438.19;5076898;28;1134;-57
2022/10/08 00:17:37;;;;;;;;;;;;;;;17.53;48.93;101436.03;5076971;28;1095;-58
2022/10/08 00:20:03;;;;;;;;;;;;;;;17.47;49.27;101437.09;5077487;28;1926;-58
2022/10/08 00:22:28;;;;;;;;;;;;;;;17.16;48.29;101431.34;5076607;28;1306;-58
2022/10/08 00:24:54;;;;;;;;;;;;;;;17.12;47.59;101442.03;5076484;28;1229;-57
2022/10/08 00:27:22;;;;;;;;;;;;;;;17.86;48.45;101434.06;5068840;28;1130;-58
2022/10/08 00:29:48;;;;;;;;;;;;;;;17.31;48.53;101442.47;5076302;28;1143;-58
2022/10/08 00:32:14;;;;;;;;;;;;;;;17.10;47.92;101434.03;5076185;28;1171;-58
2022/10/08 00:34:40;;;;;;;;;;;;;;;17.91;48.50;101425.88;5077122;28;1115;-58
2022/10/08 00:37:05;;;;;;;;;;;;;;;17.51;48.91;101428.03;5076907;28;1182;-59
2022/10/08 00:39:30;;;;;;;;;;;;;;;17.26;47.91;101432.28;5075990;28;1221;-59
2022/10/08 00:41:56;;;;;;;;;;;;;;;18.07;48.37;101424.84;5076420;28;1910;-59
2022/10/08 00:44:40;;;;;;;;;;;;;;;17.38;48.81;101425.75;5076648;28;1206;-59
2022/10/08 00:47:06;;;;;;;;;;;;;;;17.25;47.72;101429.75;5076728;28;1130;-59
2022/10/08 00:49:31;;;;;;;;;;;;;;;17.90;48.97;101413.16;5071507;28;1103;-59
2022/10/08 00:51:57;;;;;;;;;;;;;;;17.38;48.65;101423.84;5076159;28;1462;-59
2022/10/08 00:54:23;;;;;;;;;;;;;;;17.24;47.76;101428.13;5076473;28;1138;-59
2022/10/08 00:56:50;;;;;;;;;;;;;;;17.16;46.95;101420.34;5076106;28;1092;-59
2022/10/08 00:59:15;;;;;;;;;;;;;;;18.11;48.14;101417.69;5075665;28;1216;-59
2022/10/08 01:01:42;;;;;;;;;;;;;;;17.45;48.37;101413.44;5058076;28;1914;-58
2022/10/08 01:04:07;;;;;;;;;;;;;;;17.20;47.99;101405.81;5069285;28;1158;-59
2022/10/08 01:06:52;;;;;;;;;;;;;;;17.26;47.23;101410.28;5058511;28;1384;-60
2022/10/08 01:09:19;;;;;;;;;;;;;;;17.71;48.43;101407.28;5075986;28;1154;-60
2022/10/08 01:11:47;;;;;;;;;;;;;;;17.29;48.32;101403.41;5058591;28;1151;-60
2022/10/08 01:14:26;;;;;;;;;;;;;;;17.22;47.32;101394.56;5075735;28;1122;-60
2022/10/08 01:16:58;;;;;;;;;;;;;;;17.75;48.51;101390.00;5057524;28;940;-57
2022/10/08 01:19:39;;;;;;;;;;;;;;;17.32;48.30;101393.81;5076244;28;1154;-56
2022/10/08 01:22:07;;;;;;;;;;;;;;;17.16;47.37;101390.13;5076089;28;1987;-56
2022/10/08 01:27:20;;;;;;;;;;;;;;;17.43;48.73;101392.78;5076200;28;1186;-56
2022/10/08 01:29:45;;;;;;;;;;;;;;;17.30;48.04;101383.09;5076368;28;1154;-56
2022/10/08 01:32:30;;;;;;;;;;;;;;;17.13;47.41;101385.16;5047069;28;862;-57
2022/10/08 01:34:57;;;;;;;;;;;;;;;16.99;46.79;101388.34;5058038;28;1136;-58
2022/10/08 01:37:23;;;;;;;;;;;;;;;18.34;47.72;101379.81;5057886;28;1146;-57
2022/10/08 01:39:49;;;;;;;;;;;;;;;17.50;48.80;101387.06;5057423;28;1918;-58
2022/10/08 01:42:14;;;;;;;;;;;;;;;17.23;48.02;101385.22;5076344;28;1087;-57
2022/10/08 01:44:45;;;;;;;;;;;;;;;17.87;48.31;101386.19;5057916;28;1143;-58
2022/10/08 01:47:12;;;;;;;;;;;;;;;17.58;48.65;101379.13;5052437;28;1052;-57
2022/10/08 01:49:42;;;;;;;;;;;;;;;17.25;47.87;101374.78;5058535;28;1143;-58
2022/10/08 01:52:09;;;;;;;;;;;;;;;17.36;47.98;101379.31;5057953;28;891;-57
2022/10/08 01:54:35;;;;;;;;;;;;;;;17.72;48.33;101373.19;5075284;28;1189;-57
2022/10/08 01:57:01;;;;;;;;;;;;;;;17.34;48.02;101375.97;5058049;28;1257;-56
2022/10/08 01:59:30;;;;;;;;;;;;;;;18.59;47.92;101372.69;5063001;28;1158;-57
2022/10/08 02:01:58;;;;;;;;;;;;;;;14.53;57.61;101376.38;5073482;28;1993;-56
2022/10/08 02:04:34;;;;;;;;;;;;;;;16.47;50.00;101369.69;5061836;28;890;-56
2022/10/08 02:07:01;;;;;;;;;;;;;;;18.13;49.32;101362.38;5075509;28;1170;-56
2022/10/08 02:09:26;;;;;;;;;;;;;;;17.35;49.88;101369.38;5057920;28;1103;-56
2022/10/08 02:11:52;;;;;;;;;;;;;;;16.99;48.89;101366.34;5062005;28;1138;-57
2022/10/08 02:14:18;;;;;;;;;;;;;;;16.98;48.28;101363.88;5079537;28;1234;-57
2022/10/08 02:16:57;;;;;;;;;;;;;;;17.71;49.05;101377.88;5078551;28;928;-57
2022/10/08 02:19:33;;;;;;;;;;;;;;;17.13;49.01;101372.25;5061297;28;1781;-57
2022/10/08 02:21:59;;;;;;;;;;;;;;;17.01;47.90;101364.19;5061529;28;1901;-57
2022/10/08 02:24:30;;;;;;;;;;;;;;;16.96;47.21;101366.03;5061140;28;1202;-56
2022/10/08 02:26:56;;;;;;;;;;;;;;;17.63;48.99;101367.38;5061279;28;1139;-58
2022/10/08 02:29:29;;;;;;;;;;;;;;;17.28;48.27;101366.03;5060838;28;939;-59
2022/10/08 02:32:04;;;;;;;;;;;;;;;18.50;48.89;101372.41;5061246;28;1179;-57
2022/10/08 02:34:34;;;;;;;;;;;;;;;14.67;57.13;101367.91;5061320;28;1119;-57
2022/10/08 02:37:03;;;;;;;;;;;;;;;16.64;52.71;101370.41;5078870;28;1198;-57
2022/10/08 02:39:30;;;;;;;;;;;;;;;17.72;50.63;101367.69;5047001;28;1178;-55
2022/10/08 02:41:57;;;;;;;;;;;;;;;17.28;49.73;101361.38;5060738;28;1967;-55
2022/10/08 02:44:24;;;;;;;;;;;;;;;17.55;50.71;101351.38;5060834;28;1206;-55
2022/10/08 02:46:50;;;;;;;;;;;;;;;17.30;50.34;101358.34;5047598;28;1257;-57
2022/10/08 02:49:23;;;;;;;;;;;;;;;17.16;48.91;101355.22;5059802;28;1147;-58
2022/10/08 02:51:48;;;;;;;;;;;;;;;17.86;49.84;101354.28;5056927;28;2310;-60
2022/10/08 02:54:14;;;;;;;;;;;;;;;17.31;49.50;101354.50;5065699;28;1793;-61
2022/10/08 02:56:45;;;;;;;;;;;;;;;17.15;48.50;101353.56;5056722;28;1942;-57
2022/10/08 02:59:11;;;;;;;;;;;;;;;17.06;47.96;101352.41;5056820;28;2229;-60
2022/10/08 03:01:43;;;;;;;;;;;;;;;18.13;48.91;101346.72;5067677;28;2259;-59
2022/10/08 03:04:13;;;;;;;;;;;;;;;17.37;49.38;101333.38;5051224;28;1777;-61
2022/10/08 03:06:39;;;;;;;;;;;;;;;17.13;48.40;101350.25;5051923;28;1770;-57
2022/10/08 03:09:05;;;;;;;;;;;;;;;18.41;49.07;101347.34;5072541;28;1151;-57
2022/10/08 03:11:31;;;;;;;;;;;;;;;17.68;49.45;101356.38;5051506;28;1084;-56
2022/10/08 03:13:57;;;;;;;;;;;;;;;17.40;48.53;101347.44;5038590;28;1293;-57
2022/10/08 03:16:23;;;;;;;;;;;;;;;17.26;47.71;101352.56;5061468;28;1222;-56
2022/10/08 03:18:50;;;;;;;;;;;;;;;18.21;49.01;101350.03;5059945;28;1305;-57
2022/10/08 03:21:16;;;;;;;;;;;;;;;17.43;49.23;101341.41;5064756;28;1910;-57
2022/10/08 03:23:41;;;;;;;;;;;;;;;17.31;48.23;101334.47;5057011;28;1261;-58
2022/10/08 03:26:07;;;;;;;;;;;;;;;17.40;48.32;101336.44;5057695;28;1218;-56
2022/10/08 03:28:32;;;;;;;;;;;;;;;18.03;49.18;101343.91;5045357;28;1210;-58
2022/10/08 03:30:58;;;;;;;;;;;;;;;17.42;48.88;101336.19;5077442;28;1420;-56
2022/10/08 03:33:23;;;;;;;;;;;;;;;17.51;48.85;101334.56;5045721;28;1307;-57
2022/10/08 03:35:48;;;;;;;;;;;;;;;17.78;49.43;101337.19;5077578;28;1103;-55
2022/10/08 03:38:14;;;;;;;;;;;;;;;17.34;48.78;101329.22;5077935;28;2247;-58
2022/10/08 03:40:43;;;;;;;;;;;;;;;17.40;48.35;101328.19;5077608;28;1988;-57
2022/10/08 03:43:08;;;;;;;;;;;;;;;18.05;48.79;101322.47;5077562;28;1150;-57
2022/10/08 03:45:34;;;;;;;;;;;;;;;17.57;48.75;101333.50;5077199;28;1139;-57
2022/10/08 03:47:59;;;;;;;;;;;;;;;17.29;48.21;101326.44;5077573;28;1134;-62
2022/10/08 03:50:24;;;;;;;;;;;;;;;18.44;48.54;101344.03;5069005;28;1253;-62
2022/10/08 03:52:50;;;;;;;;;;;;;;;17.57;49.19;101336.25;5074120;28;1107;-62
2022/10/08 03:55:15;;;;;;;;;;;;;;;17.47;48.06;101335.38;5077472;28;1201;-62
2022/10/08 03:57:41;;;;;;;;;;;;;;;17.92;48.68;101333.97;5076881;28;1267;-62
2022/10/08 04:00:07;;;;;;;;;;;;;;;17.71;49.15;101327.50;5077396;28;1971;-60
2022/10/08 04:02:32;;;;;;;;;;;;;;;17.55;48.09;101334.88;5076865;28;1110;-60
2022/10/08 04:04:58;;;;;;;;;;;;;;;17.38;47.54;101326.78;5076634;28;1095;-60
2022/10/08 04:07:23;;;;;;;;;;;;;;;18.36;48.25;101333.56;5076899;28;2355;-61
2022/10/08 04:09:48;;;;;;;;;;;;;;;17.75;48.53;101337.72;5068167;28;1110;-59
2022/10/08 04:12:14;;;;;;;;;;;;;;;17.43;47.88;101333.16;5056800;28;1158;-61
2022/10/08 04:14:39;;;;;;;;;;;;;;;18.16;48.58;101333.50;5064302;28;1158;-62
2022/10/08 04:17:05;;;;;;;;;;;;;;;15.53;54.41;101333.97;5069452;28;1213;-61
2022/10/08 04:19:30;;;;;;;;;;;;;;;15.97;51.63;101323.03;5074993;28;1166;-63
2022/10/08 04:21:56;;;;;;;;;;;;;;;17.43;50.46;101333.16;5065702;28;1982;-61
2022/10/08 04:24:21;;;;;;;;;;;;;;;17.02;49.91;101332.84;5056693;28;1214;-61
2022/10/08 04:26:46;;;;;;;;;;;;;;;17.23;49.56;101338.50;5056589;28;1130;-61
2022/10/08 04:29:12;;;;;;;;;;;;;;;17.62;49.78;101344.50;5056564;28;1228;-61
2022/10/08 04:31:38;;;;;;;;;;;;;;;17.17;49.06;101336.84;5076727;28;1139;-60
2022/10/08 04:34:03;;;;;;;;;;;;;;;17.02;48.52;101343.03;5076280;28;1209;-61
2022/10/08 04:36:29;;;;;;;;;;;;;;;17.77;48.93;101341.03;5073251;28;2399;-60
2022/10/08 04:38:54;;;;;;;;;;;;;;;17.15;49.17;101352.75;5066912;28;1116;-62
2022/10/08 04:41:22;;;;;;;;;;;;;;;17.14;48.02;101340.09;5076115;28;1987;-63
2022/10/08 04:43:47;;;;;;;;;;;;;;;17.94;48.94;101345.53;5076206;28;1150;-63
2022/10/08 04:46:14;;;;;;;;;;;;;;;17.40;48.80;101347.44;5076032;28;1217;-62
2022/10/08 04:48:43;;;;;;;;;;;;;;;17.17;48.10;101339.59;5063142;28;1158;-63
2022/10/08 04:51:08;;;;;;;;;;;;;;;17.32;48.36;101347.09;5040134;28;1184;-62
2022/10/08 04:53:34;;;;;;;;;;;;;;;17.62;49.01;101354.69;5061261;28;1162;-61
2022/10/08 04:56:06;;;;;;;;;;;;;;;17.16;48.49;101354.41;5076035;28;1115;-61
2022/10/08 04:58:31;;;;;;;;;;;;;;;17.32;48.60;101349.84;5075745;28;1139;-61
2022/10/08 05:01:01;;;;;;;;;;;;;;;18.01;48.70;101356.31;5076279;28;1901;-63
2022/10/08 05:03:27;;;;;;;;;;;;;;;17.45;48.64;101360.38;5076135;28;1245;-63
2022/10/08 05:05:53;;;;;;;;;;;;;;;17.16;47.99;101355.22;5075456;28;1162;-64
2022/10/08 05:08:18;;;;;;;;;;;;;;;17.15;47.18;101363.72;5076117;28;2476;-61
2022/10/08 05:10:47;;;;;;;;;;;;;;;17.43;47.66;101355.16;5075831;28;1131;-64
2022/10/08 05:13:13;;;;;;;;;;;;;;;17.60;48.56;101365.16;5075895;28;1127;-63
2022/10/08 05:15:38;;;;;;;;;;;;;;;17.28;48.01;101368.78;5076049;28;1158;-66
2022/10/08 05:18:03;;;;;;;;;;;;;;;17.23;47.38;101355.81;5071007;28;914;-64
2022/10/08 05:20:29;;;;;;;;;;;;;;;18.29;47.75;101368.78;5076139;28;1964;-65
2022/10/08 05:22:54;;;;;;;;;;;;;;;17.41;48.72;101362.81;5061806;28;1114;-65
2022/10/08 05:25:20;;;;;;;;;;;;;;;17.36;48.54;101368.31;5075983;28;1102;-66
2022/10/08 05:27:45;;;;;;;;;;;;;;;17.75;48.88;101373.50;5075444;28;1107;-67
2022/10/08 05:30:11;;;;;;;;;;;;;;;17.33;48.45;101359.75;5075489;28;943;-66
2022/10/08 05:32:36;;;;;;;;;;;;;;;17.28;47.44;101368.78;5075549;28;1091;-66
2022/10/08 05:35:01;;;;;;;;;;;;;;;18.42;47.75;101368.25;5075683;28;1134;-67
2022/10/08 05:37:27;;;;;;;;;;;;;;;18.03;48.57;101379.69;5075846;28;1867;-64
2022/10/08 05:39:52;;;;;;;;;;;;;;;18.11;48.71;101381.09;5075557;28;1139;-63
2022/10/08 05:42:18;;;;;;;;;;;;;;;17.69;49.45;101377.28;5074961;28;1971;-61
2022/10/08 05:44:43;;;;;;;;;;;;;;;17.48;50.11;101383.78;5076898;28;1131;-61
2022/10/08 05:47:09;;;;;;;;;;;;;;;17.29;50.84;101375.91;5079536;28;1154;-61
2022/10/08 05:49:35;;;;;;;;;;;;;;;17.15;51.42;101381.03;5079831;28;1087;-61
2022/10/08 05:52:01;;;;;;;;;;;;;;;17.05;51.51;101384.53;5079254;28;1237;-58
2022/10/08 05:54:26;;;;;;;;;;;;;;;16.95;52.03;101375.41;5079035;28;894;-60
2022/10/08 05:56:51;;;;;;;;;;;;;;;16.87;52.18;101384.88;5079650;28;1075;-61
2022/10/08 05:59:18;;;;;;;;;;;;;;;16.80;52.60;101374.09;5079234;28;1067;-61
2022/10/08 06:01:43;;;;;;;;;;;;;;;16.75;52.59;101379.56;5079887;28;1979;-61
2022/10/08 06:04:09;;;;;;;;;;;;;;;16.67;53.14;101375.38;5079305;28;1099;-62
2022/10/08 06:06:38;;;;;;;;;;;;;;;16.65;52.77;101385.78;5075441;28;2350;-61
2022/10/08 06:09:03;;;;;;;;;;;;;;;16.60;52.98;101388.47;5076219;28;1190;-62
2022/10/08 06:11:29;;;;;;;;;;;;;;;16.49;53.27;101382.03;5079374;28;1114;-62
2022/10/08 06:13:55;;;;;;;;;;;;;;;16.46;53.36;101385.31;5079342;28;1115;-64
2022/10/08 06:16:21;;;;;;;;;;;;;;;16.42;53.65;101387.75;5079172;28;1190;-62
2022/10/08 06:18:47;;;;;;;;;;;;;;;16.36;53.70;101380.53;5078893;28;872;-62
2022/10/08 06:21:13;;;;;;;;;;;;;;;16.35;53.76;101387.09;5078805;28;1968;-62
2022/10/08 06:23:39;;;;;;;;;;;;;;;16.23;53.87;101378.22;5079040;28;1107;-67
2022/10/08 06:26:05;;;;;;;;;;;;;;;16.19;54.04;101385.28;5077990;28;1115;-64
2022/10/08 06:28:31;;;;;;;;;;;;;;;16.18;53.95;101380.88;5078844;28;1138;-61
2022/10/08 06:30:57;;;;;;;;;;;;;;;16.64;53.15;101389.63;5078262;28;1209;-62
2022/10/08 06:33:23;;;;;;;;;;;;;;;17.19;52.05;101379.41;5078972;28;1189;-60
2022/10/08 06:35:48;;;;;;;;;;;;;;;16.61;53.65;101384.66;5079054;28;1110;-62
2022/10/08 06:38:14;;;;;;;;;;;;;;;16.46;54.17;101376.25;5066762;28;2391;-62
2022/10/08 06:40:39;;;;;;;;;;;;;;;16.35;54.14;101378.06;5067774;28;1910;-66
2022/10/08 06:43:06;;;;;;;;;;;;;;;16.24;54.57;101371.63;5061793;28;1122;-66
2022/10/08 06:45:33;;;;;;;;;;;;;;;16.17;54.40;101360.00;5078758;28;1150;-65
2022/10/08 06:47:58;;;;;;;;;;;;;;;17.52;51.58;101362.91;5078573;28;1173;-65
2022/10/08 06:50:23;;;;;;;;;;;;;;;16.91;53.22;101358.59;5078747;28;1135;-64
2022/10/08 06:52:49;;;;;;;;;;;;;;;16.56;54.08;101358.00;5078696;28;1181;-66
2022/10/08 06:55:14;;;;;;;;;;;;;;;16.46;54.41;101357.03;5077888;28;1280;-65
2022/10/08 06:57:40;;;;;;;;;;;;;;;16.35;54.69;101369.81;5077043;28;1165;-63
2022/10/08 07:00:05;;;;;;;;;;;;;;;16.24;54.63;101349.66;5077670;28;1902;-62
2022/10/08 07:02:31;;;;;;;;;;;;;;;16.31;54.90;101354.97;5073954;28;1162;-63
2022/10/08 07:04:56;;;;;;;;;;;;;;;17.50;51.85;101354.06;5077850;28;1173;-65
2022/10/08 07:07:22;;;;;;;;;;;;;;;16.80;54.09;101362.31;5067295;28;2426;-60
2022/10/08 07:09:47;;;;;;;;;;;;;;;16.49;54.87;101362.00;5058334;28;1119;-59
2022/10/08 07:12:13;;;;;;;;;;;;;;;16.42;54.68;101363.06;5057799;28;1205;-58
2022/10/08 07:14:39;;;;;;;;;;;;;;;16.25;54.99;101363.13;5057986;28;1083;-59
2022/10/08 07:17:04;;;;;;;;;;;;;;;16.20;55.35;101351.25;5058122;28;1201;-60
2022/10/08 07:19:29;;;;;;;;;;;;;;;16.14;55.32;101358.59;5065984;28;1162;-60
2022/10/08 07:21:55;;;;;;;;;;;;;;;17.65;52.01;101342.34;5078022;28;1913;-61
2022/10/08 07:24:20;;;;;;;;;;;;;;;16.92;54.16;101354.75;5078180;28;1119;-60
2022/10/08 07:26:46;;;;;;;;;;;;;;;16.59;55.01;101360.22;5077872;28;1091;-58
2022/10/08 07:29:12;;;;;;;;;;;;;;;16.42;55.36;101343.00;5078044;28;1331;-57
2022/10/08 07:31:37;;;;;;;;;;;;;;;16.35;55.38;101353.34;5077517;28;885;-59
2022/10/08 07:34:04;;;;;;;;;;;;;;;16.23;55.45;101345.28;5077890;28;1134;-59
2022/10/08 07:36:30;;;;;;;;;;;;;;;16.21;55.63;101341.94;5074842;28;1865;-62
2022/10/08 07:38:58;;;;;;;;;;;;;;;17.16;53.79;101330.50;5068381;28;1139;-61
2022/10/08 07:41:24;;;;;;;;;;;;;;;17.05;53.98;101337.81;5077291;28;1984;-58
2022/10/08 07:43:53;;;;;;;;;;;;;;;16.65;55.25;101330.03;5077376;28;924;-61
2022/10/08 07:46:18;;;;;;;;;;;;;;;16.43;55.67;101330.94;5076290;28;1135;-60
2022/10/08 07:48:44;;;;;;;;;;;;;;;16.37;55.61;101331.97;5057913;28;1107;-61
2022/10/08 07:51:10;;;;;;;;;;;;;;;16.26;55.80;101325.56;5057921;28;1138;-60
2022/10/08 07:53:35;;;;;;;;;;;;;;;16.20;55.99;101326.56;5076473;28;1213;-59
2022/10/08 07:56:01;;;;;;;;;;;;;;;17.61;53.19;101325.53;5071045;28;882;-56
2022/10/08 07:58:27;;;;;;;;;;;;;;;16.85;54.68;101321.16;5059597;28;1150;-57
2022/10/08 08:00:58;;;;;;;;;;;;;;;16.57;55.61;101314.88;5057026;28;1961;-59
2022/10/08 08:03:24;;;;;;;;;;;;;;;16.41;56.07;101320.22;5073093;28;1150;-60
2022/10/08 08:05:49;;;;;;;;;;;;;;;16.30;55.96;101312.97;5058608;28;1150;-60
2022/10/08 08:08:15;;;;;;;;;;;;;;;16.22;55.95;101313.44;5063689;28;2260;-59
2022/10/08 08:10:40;;;;;;;;;;;;;;;16.20;55.96;101315.59;5073127;28;1232;-61
2022/10/08 08:13:05;;;;;;;;;;;;;;;17.14;54.76;101304.34;5077039;28;1107;-59
2022/10/08 08:15:31;;;;;;;;;;;;;;;17.10;54.59;101324.13;5062857;28;1169;-62
2022/10/08 08:17:56;;;;;;;;;;;;;;;16.65;55.65;101311.66;5056818;28;1138;-58
2022/10/08 08:20:22;;;;;;;;;;;;;;;16.50;56.10;101319.75;5068572;28;1967;-60
2022/10/08 08:22:47;;;;;;;;;;;;;;;16.37;55.97;101321.00;5077137;28;1099;-58
2022/10/08 08:25:13;;;;;;;;;;;;;;;16.24;56.39;101322.22;5076613;28;1067;-57
2022/10/08 08:27:38;;;;;;;;;;;;;;;16.86;55.31;101309.91;5076594;28;1119;-58
2022/10/08 08:30:04;;;;;;;;;;;;;;;17.33;54.31;101315.75;5069184;28;1106;-60
2022/10/08 08:32:29;;;;;;;;;;;;;;;16.75;55.63;101311.75;5070023;28;963;-62
2022/10/08 08:34:55;;;;;;;;;;;;;;;16.56;56.09;101307.72;5076447;28;1118;-60
2022/10/08 08:37:20;;;;;;;;;;;;;;;16.42;56.28;101302.66;5076581;28;1856;-61
2022/10/08 08:39:46;;;;;;;;;;;;;;;16.32;56.46;101299.81;5076749;28;1083;-60
2022/10/08 08:42:27;;;;;;;;;;;;;;;16.22;56.50;101294.22;5076573;28;1902;-58
2022/10/08 08:45:12;;;;;;;;;;;;;;;16.16;56.34;101297.97;5074320;28;1201;-60
2022/10/08 08:47:41;;;;;;;;;;;;;;;17.42;54.31;101309.50;5075855;28;1201;-59
2022/10/08 08:50:12;;;;;;;;;;;;;;;17.12;55.20;101292.81;5061250;28;1102;-59
2022/10/08 08:52:38;;;;;;;;;;;;;;;16.67;56.05;101297.66;5067229;28;1171;-59
2022/10/08 08:55:08;;;;;;;;;;;;;;;16.50;56.33;101304.09;5054848;28;1151;-58
2022/10/08 08:57:41;;;;;;;;;;;;;;;16.41;56.47;101297.41;5057982;28;1209;-60
2022/10/08 09:00:13;;;;;;;;;;;;;;;16.34;56.78;101292.16;5055003;28;1971;-57
2022/10/08 09:02:39;;;;;;;;;;;;;;;17.68;54.00;101301.38;5076310;28;1150;-60
2022/10/08 09:05:06;;;;;;;;;;;;;;;16.88;56.00;101294.00;5058103;28;1182;-60
2022/10/08 09:07:42;;;;;;;;;;;;;;;16.61;56.42;101280.31;5076092;28;1853;-58
2022/10/08 09:10:10;;;;;;;;;;;;;;;16.46;56.56;101285.69;5057877;28;1107;-58
2022/10/08 09:12:36;;;;;;;;;;;;;;;16.36;56.55;101289.97;5074645;28;1214;-59
2022/10/08 09:15:01;;;;;;;;;;;;;;;16.31;56.44;101300.06;5076483;28;1099;-59
2022/10/08 09:17:28;;;;;;;;;;;;;;;16.25;56.77;101288.22;5060027;28;1405;-59
2022/10/08 09:19:54;;;;;;;;;;;;;;;16.17;56.77;101295.00;5045831;28;2434;-59
2022/10/08 09:22:21;;;;;;;;;;;;;;;17.54;54.53;101292.78;5051681;28;1910;-59
2022/10/08 09:24:47;;;;;;;;;;;;;;;16.87;56.09;101286.00;5074456;28;2043;-60
2022/10/08 09:27:13;;;;;;;;;;;;;;;16.57;56.72;101277.25;5061885;28;2604;-59
2022/10/08 09:29:38;;;;;;;;;;;;;;;16.43;56.69;101276.84;5063768;28;1861;-60
2022/10/08 09:32:04;;;;;;;;;;;;;;;16.38;56.66;101284.22;5073608;28;2291;-58
2022/10/08 09:34:29;;;;;;;;;;;;;;;16.27;56.85;101274.22;5063160;28;1971;-59
2022/10/08 09:37:04;;;;;;;;;;;;;;;17.13;55.58;101258.75;5038185;28;1108;-57
2022/10/08 09:39:30;;;;;;;;;;;;;;;17.19;55.28;101254.94;5055102;28;1166;-63
2022/10/08 09:42:08;;;;;;;;;;;;;;;16.73;56.67;101245.28;5062837;28;1977;-62
2022/10/08 09:44:39;;;;;;;;;;;;;;;16.51;56.60;101261.84;5074794;28;955;-60
2022/10/08 09:47:05;;;;;;;;;;;;;;;16.38;56.66;101257.63;5068404;28;1134;-60
2022/10/08 09:49:31;;;;;;;;;;;;;;;16.35;56.56;101258.13;5055442;28;1265;-61
2022/10/08 09:51:58;;;;;;;;;;;;;;;17.07;55.68;101266.97;5055740;28;1226;-57
2022/10/08 09:54:25;;;;;;;;;;;;;;;17.26;55.30;101263.78;5055342;28;1373;-57
2022/10/08 09:56:52;;;;;;;;;;;;;;;16.71;56.74;101266.66;5041816;28;1135;-58
2022/10/08 09:59:17;;;;;;;;;;;;;;;16.56;56.71;101258.31;5067417;28;1148;-61
2022/10/08 10:01:45;;;;;;;;;;;;;;;16.45;56.57;101245.59;5074958;28;1905;-63
2022/10/08 10:04:31;;;;;;;;;;;;;;;16.36;56.71;101239.75;5069901;28;1892;-61
2022/10/08 10:06:57;;;;;;;;;;;;;;;16.29;56.53;101237.22;5064624;28;1185;-61
2022/10/08 10:09:29;;;;;;;;;;;;;;;16.23;56.66;101235.53;5075364;28;1103;-62
2022/10/08 10:11:59;;;;;;;;;;;;;;;17.05;55.63;101247.16;5057497;28;1283;-57
2022/10/08 10:14:31;;;;;;;;;;;;;;;17.24;55.40;101243.97;5075361;28;1131;-56
2022/10/08 10:17:04;;;;;;;;;;;;;;;16.71;56.76;101236.47;5058096;28;1300;-58
2022/10/08 10:19:31;;;;;;;;;;;;;;;16.50;56.87;101232.72;5070593;28;1135;-58
2022/10/08 10:22:26;;;;;;;;;;;;;;;16.42;56.87;101231.31;5066121;28;1973;-58
2022/10/08 10:24:54;;;;;;;;;;;;;;;16.28;57.11;101224.56;5062397;28;1507;-57
2022/10/08 10:27:28;;;;;;;;;;;;;;;17.15;55.69;101226.34;5075121;28;1166;-59
2022/10/08 10:29:53;;;;;;;;;;;;;;;17.06;56.08;101235.06;5057475;28;1083;-58
2022/10/08 10:32:26;;;;;;;;;;;;;;;16.65;56.91;101215.56;5078163;28;1103;-60
2022/10/08 10:34:57;;;;;;;;;;;;;;;16.46;56.93;101208.81;5045785;28;2518;-58
2022/10/08 10:37:31;;;;;;;;;;;;;;;16.35;56.86;101214.19;5041112;28;1142;-59
2022/10/08 10:40:15;;;;;;;;;;;;;;;16.24;56.89;101206.97;5040785;28;1155;-60
2022/10/08 10:42:46;;;;;;;;;;;;;;;17.60;54.61;101214.72;5058688;28;1115;-60
2022/10/08 10:45:19;;;;;;;;;;;;;;;16.92;56.32;101206.44;5075392;28;840;-60
2022/10/08 10:47:45;;;;;;;;;;;;;;;16.64;56.71;101205.66;5077698;28;1221;-59
2022/10/08 10:50:13;;;;;;;;;;;;;;;16.46;57.14;101206.88;5073677;28;1182;-57
2022/10/08 10:52:57;;;;;;;;;;;;;;;16.37;56.81;101208.47;5070377;28;1206;-58
2022/10/08 10:55:46;;;;;;;;;;;;;;;16.31;57.03;101202.09;5058378;28;1100;-57
2022/10/08 10:58:21;;;;;;;;;;;;;;;17.03;56.30;101202.63;5047102;28;1171;-59
2022/10/08 11:00:52;;;;;;;;;;;;;;;17.35;55.39;101193.47;5069103;28;1950;-60
2022/10/08 11:03:23;;;;;;;;;;;;;;;16.77;56.89;101191.47;5055864;28;2266;-60
2022/10/08 11:06:09;;;;;;;;;;;;;;;16.62;56.87;101190.53;5055185;28;1112;-60
2022/10/08 11:08:37;;;;;;;;;;;;;;;16.45;57.01;101179.69;5057120;28;1157;-60
2022/10/08 11:11:14;;;;;;;;;;;;;;;16.35;56.87;101172.22;5057168;28;1187;-58
2022/10/08 11:13:46;;;;;;;;;;;;;;;16.29;57.05;101157.63;5058125;28;1079;-58
2022/10/08 11:16:11;;;;;;;;;;;;;;;16.21;57.00;101153.44;5056480;28;1103;-57
2022/10/08 11:18:50;;;;;;;;;;;;;;;16.83;56.46;101164.03;5057978;28;1174;-57
2022/10/08 11:21:34;;;;;;;;;;;;;;;17.24;55.75;101153.28;5072926;28;1982;-57
2022/10/08 11:24:13;;;;;;;;;;;;;;;16.64;57.07;101158.97;5058123;28;1122;-57
2022/10/08 11:26:43;;;;;;;;;;;;;;;16.50;57.06;101144.88;5060938;28;1096;-57
2022/10/08 11:29:18;;;;;;;;;;;;;;;16.37;57.08;101137.13;5042387;28;1178;-56
2022/10/08 11:31:47;;;;;;;;;;;;;;;16.30;57.02;101133.75;5036527;28;1154;-57
2022/10/08 11:34:45;;;;;;;;;;;;;;;16.52;57.02;101137.22;5040227;28;2385;-57
2022/10/08 11:37:25;;;;;;;;;;;;;;;17.31;55.60;101125.56;5035755;28;1292;-60
2022/10/08 11:40:09;;;;;;;;;;;;;;;16.75;56.65;101118.69;5058029;28;1228;-57
2022/10/08 11:42:38;;;;;;;;;;;;;;;16.50;57.30;101127.59;5056763;28;1910;-57
2022/10/08 11:45:14;;;;;;;;;;;;;;;16.42;56.87;101126.16;5057227;28;1241;-59
2022/10/08 11:47:39;;;;;;;;;;;;;;;16.33;57.16;101119.53;5057577;28;1192;-55
2022/10/08 11:50:10;;;;;;;;;;;;;;;16.26;56.88;101117.00;5052919;28;1181;-57
2022/10/08 11:52:36;;;;;;;;;;;;;;;16.58;56.96;101102.41;5036390;28;1215;-59
2022/10/08 11:55:01;;;;;;;;;;;;;;;17.62;54.86;101107.19;5054659;28;1217;-57
2022/10/08 11:57:34;;;;;;;;;;;;;;;16.92;56.51;101113.03;5056767;28;925;-58
2022/10/08 12:00:00;;;;;;;;;;;;;;;16.59;56.99;101104.88;5075414;28;1162;-57
2022/10/08 12:02:27;;;;;;;;;;;;;;;16.46;57.12;101099.03;5075744;28;1917;-56
2022/10/08 12:04:53;;;;;;;;;;;;;;;16.33;57.23;101095.63;5059535;28;2491;-58
2022/10/08 12:07:19;;;;;;;;;;;;;;;16.28;57.17;101084.63;5076574;28;1130;-58
2022/10/08 12:10:03;;;;;;;;;;;;;;;16.88;56.67;101095.41;5077001;28;988;-56
2022/10/08 12:13:04;;;;;;;;;;;;;;;17.27;55.77;101093.09;5076594;28;1157;-56
2022/10/08 12:15:32;;;;;;;;;;;;;;;16.72;57.12;101095.31;5000938;28;1207;-57
2022/10/08 12:17:58;;;;;;;;;;;;;;;16.51;57.15;101097.13;5045179;28;1387;-56
2022/10/08 12:20:24;;;;;;;;;;;;;;;16.41;57.11;101084.16;5038768;28;1906;-56
2022/10/08 12:23:01;;;;;;;;;;;;;;;16.37;56.82;101083.03;5074997;28;1111;-56
2022/10/08 12:25:28;;;;;;;;;;;;;;;16.26;56.95;101073.09;5064929;28;1138;-57
2022/10/08 12:28:03;;;;;;;;;;;;;;;16.19;56.96;101084.28;5070812;28;1159;-57
2022/10/08 12:30:44;;;;;;;;;;;;;;;16.54;56.86;101084.81;5049936;28;1338;-57
2022/10/08 12:33:10;;;;;;;;;;;;;;;17.07;56.20;101091.13;5076299;28;2560;-57
2022/10/08 12:35:37;;;;;;;;;;;;;;;16.58;57.34;101083.19;5076256;28;1127;-57
2022/10/08 12:38:14;;;;;;;;;;;;;;;16.43;57.18;101078.41;5061342;28;1185;-57
2022/10/08 12:40:43;;;;;;;;;;;;;;;16.35;57.06;101087.13;5076208;28;1890;-57
2022/10/08 12:43:14;;;;;;;;;;;;;;;17.68;54.85;101064.84;5076521;28;1162;-56
2022/10/08 12:45:45;;;;;;;;;;;;;;;16.90;56.73;101063.84;5075535;28;880;-58
2022/10/08 12:48:37;;;;;;;;;;;;;;;16.60;57.07;101061.75;5074909;28;1158;-58
2022/10/08 12:51:02;;;;;;;;;;;;;;;16.48;57.08;101064.72;5073555;28;1667;-57
2022/10/08 12:53:28;;;;;;;;;;;;;;;16.42;57.01;101065.78;5075778;28;1281;-57
2022/10/08 12:55:54;;;;;;;;;;;;;;;16.33;56.94;101056.41;5074582;28;1166;-57